Terminal Aerodrome Forecast
Issued by NWS Quad Cities IA IL

Home | Current Version | Previous Version | Text Only | Print | Product List | Glossary On
Versions: 1 2 3 4 5 6 7 8 9 10 11 12 13
000
FTUS43 KDVN 212337
TAFMLI
TAF
KMLI 212337Z 2200/2224 34009KT P6SM SCT250
     FM220600 07006KT P6SM SCT025
     FM221500 10008KT P6SM BKN150=

USA.gov is the U.S. government's official web portal to all federal, state and local government web resources and services.